sensor_id;sensor_type;location;lat;lon;timestamp;pressure;altitude;pressure_sealevel;temperature;humidity
3206;BME280;1615;53.602;11.418;2023-02-23T00:00:17;100871.56;;;9.61;100.00
3206;BME280;1615;53.602;11.418;2023-02-23T00:02:47;100855.22;;;9.46;100.00
3206;BME280;1615;53.602;11.418;2023-02-23T00:05:14;100862.13;;;9.38;100.00
3206;BME280;1615;53.602;11.418;2023-02-23T00:07:44;100873.31;;;9.42;100.00
3206;BME280;1615;53.602;11.418;2023-02-23T00:10:13;100873.31;;;9.42;100.00
3206;BME280;1615;53.602;11.418;2023-02-23T00:12:40;100866.44;;;9.44;100.00
3206;BME280;1615;53.602;11.418;2023-02-23T00:15:06;100867.81;;;9.42;100.00
3206;BME280;1615;53.602;11.418;2023-02-23T00:17:32;100863.69;;;9.49;100.00
3206;BME280;1615;53.602;11.418;2023-02-23T00:19:57;100725.00;;;8.63;100.00
3206;BME280;1615;53.602;11.418;2023-02-23T00:22:24;100404.41;;;6.70;100.00
3206;BME280;1615;53.602;11.418;2023-02-23T00:24:49;100860.00;;;9.64;100.00
3206;BME280;1615;53.602;11.418;2023-02-23T00:27:15;100858.97;;;9.60;100.00
3206;BME280;1615;53.602;11.418;2023-02-23T00:29:45;100853.59;;;9.45;100.00
3206;BME280;1615;53.602;11.418;2023-02-23T00:32:14;100810.59;;;9.12;100.00
3206;BME280;1615;53.602;11.418;2023-02-23T00:34:45;100848.13;;;9.45;100.00
3206;BME280;1615;53.602;11.418;2023-02-23T00:37:14;100848.13;;;9.45;100.00
3206;BME280;1615;53.602;11.418;2023-02-23T00:39:40;100844.88;;;9.38;100.00
3206;BME280;1615;53.602;11.418;2023-02-23T00:42:05;100734.28;;;8.67;100.00
3206;BME280;1615;53.602;11.418;2023-02-23T00:44:31;100856.63;;;9.38;100.00
3206;BME280;1615;53.602;11.418;2023-02-23T00:47:01;100863.19;;;9.42;100.00
3206;BME280;1615;53.602;11.418;2023-02-23T00:49:27;100859.06;;;9.45;100.00
3206;BME280;1615;53.602;11.418;2023-02-23T00:51:52;100861.75;;;9.55;100.00
3206;BME280;1615;53.602;11.418;2023-02-23T00:54:19;100856.88;;;9.42;100.00
3206;BME280;1615;53.602;11.418;2023-02-23T00:56:45;100868.41;;;9.39;100.00
3206;BME280;1615;53.602;11.418;2023-02-23T00:59:11;100859.91;;;9.40;100.00
3206;BME280;1615;53.602;11.418;2023-02-23T01:01:37;100839.97;;;9.35;100.00
3206;BME280;1615;53.602;11.418;2023-02-23T01:04:03;100856.28;;;9.55;100.00
3206;BME280;1615;53.602;11.418;2023-02-23T01:06:29;100853.22;;;9.56;100.00
3206;BME280;1615;53.602;11.418;2023-02-23T01:08:54;100822.22;;;9.32;100.00
3206;BME280;1615;53.602;11.418;2023-02-23T01:11:23;100836.59;;;9.48;100.00
3206;BME280;1615;53.602;11.418;2023-02-23T01:13:52;100842.88;;;9.53;100.00
3206;BME280;1615;53.602;11.418;2023-02-23T01:16:20;100846.72;;;9.52;100.00
3206;BME280;1615;53.602;11.418;2023-02-23T01:18:46;100860.09;;;9.54;100.00
3206;BME280;1615;53.602;11.418;2023-02-23T01:21:17;100851.88;;;9.54;100.00
3206;BME280;1615;53.602;11.418;2023-02-23T01:23:44;100844.25;;;9.51;100.00
3206;BME280;1615;53.602;11.418;2023-02-23T01:26:21;100793.13;;;9.03;100.00
3206;BME280;1615;53.602;11.418;2023-02-23T01:28:51;100867.06;;;9.36;100.00
3206;BME280;1615;53.602;11.418;2023-02-23T01:31:17;100839.97;;;9.35;100.00
3206;BME280;1615;53.602;11.418;2023-02-23T01:33:43;100839.41;;;9.38;100.00
3206;BME280;1615;53.602;11.418;2023-02-23T01:36:08;100840.22;;;9.38;100.00
3206;BME280;1615;53.602;11.418;2023-02-23T01:38:33;100842.94;;;9.43;100.00
3206;BME280;1615;53.602;11.418;2023-02-23T01:40:59;100842.69;;;9.40;100.00
3206;BME280;1615;53.602;11.418;2023-02-23T01:43:24;100844.31;;;9.41;100.00
3206;BME280;1615;53.602;11.418;2023-02-23T01:45:54;100833.19;;;9.27;100.00
3206;BME280;1615;53.602;11.418;2023-02-23T01:48:22;100849.25;;;9.39;100.00
3206;BME280;1615;53.602;11.418;2023-02-23T01:50:53;100740.34;;;8.64;100.00
3206;BME280;1615;53.602;11.418;2023-02-23T01:53:25;100713.59;;;8.51;100.00
3206;BME280;1615;53.602;11.418;2023-02-23T01:55:54;100849.28;;;9.34;100.00
3206;BME280;1615;53.602;11.418;2023-02-23T01:58:22;100850.09;;;9.34;100.00
3206;BME280;1615;53.602;11.418;2023-02-23T02:00:51;100842.44;;;9.36;100.00
3206;BME280;1615;53.602;11.418;2023-02-23T02:03:28;100849.88;;;9.26;100.00
3206;BME280;1615;53.602;11.418;2023-02-23T02:05:56;100849.84;;;9.31;100.00
3206;BME280;1615;53.602;11.418;2023-02-23T02:08:23;100719.31;;;8.54;100.00
3206;BME280;1615;53.602;11.418;2023-02-23T02:10:51;100730.50;;;8.58;100.00
3206;BME280;1615;53.602;11.418;2023-02-23T02:13:22;100840.53;;;9.32;100.00
3206;BME280;1615;53.602;11.418;2023-02-23T02:18:51;100842.22;;;9.28;100.00
3206;BME280;1615;53.602;11.418;2023-02-23T02:24:45;100831.84;;;9.25;100.00
3206;BME280;1615;53.602;11.418;2023-02-23T02:35:43;100813.03;;;9.13;100.00
3206;BME280;1615;53.602;11.418;2023-02-23T02:38:25;100818.78;;;9.12;100.00
3206;BME280;1615;53.602;11.418;2023-02-23T02:41:04;100819.34;;;9.09;100.00
3206;BME280;1615;53.602;11.418;2023-02-23T02:43:48;100810.66;;;8.97;100.00
3206;BME280;1615;53.602;11.418;2023-02-23T02:46:21;100707.44;;;8.30;100.00
3206;BME280;1615;53.602;11.418;2023-02-23T02:48:55;100806.31;;;8.91;100.00
3206;BME280;1615;53.602;11.418;2023-02-23T02:51:46;100806.25;;;9.01;100.00
3206;BME280;1615;53.602;11.418;2023-02-23T02:54:39;100814.19;;;9.02;100.00
3206;BME280;1615;53.602;11.418;2023-02-23T02:57:07;100751.31;;;8.54;100.00
3206;BME280;1615;53.602;11.418;2023-02-23T02:59:45;100803.63;;;8.86;100.00
3206;BME280;1615;53.602;11.418;2023-02-23T03:02:31;100802.78;;;8.85;100.00
3206;BME280;1615;53.602;11.418;2023-02-23T03:05:19;100798.69;;;8.83;100.00
3206;BME280;1615;53.602;11.418;2023-02-23T03:08:20;100761.66;;;8.57;100.00
3206;BME280;1615;53.602;11.418;2023-02-23T03:11:13;100797.94;;;8.77;100.00
3206;BME280;1615;53.602;11.418;2023-02-23T03:20:12;100802.59;;;8.72;100.00
3206;BME280;1615;53.602;11.418;2023-02-23T03:26:14;100796.59;;;8.65;100.00
3206;BME280;1615;53.602;11.418;2023-02-23T03:29:04;100793.31;;;8.63;100.00
3206;BME280;1615;53.602;11.418;2023-02-23T03:34:51;100792.81;;;8.56;100.00
3206;BME280;1615;53.602;11.418;2023-02-23T03:37:46;100795.81;;;8.54;100.00
3206;BME280;1615;53.602;11.418;2023-02-23T03:40:34;100795.56;;;8.51;100.00
3206;BME280;1615;53.602;11.418;2023-02-23T03:43:33;100798.81;;;8.53;100.00
3206;BME280;1615;53.602;11.418;2023-02-23T03:46:19;100805.94;;;8.54;100.00
3206;BME280;1615;53.602;11.418;2023-02-23T03:49:07;100803.50;;;8.52;100.00
3206;BME280;1615;53.602;11.418;2023-02-23T03:51:58;100804.88;;;8.50;100.00
3206;BME280;1615;53.602;11.418;2023-02-23T03:54:53;100799.91;;;8.52;100.00
3206;BME280;1615;53.602;11.418;2023-02-23T03:57:40;100747.06;;;8.08;100.00
3206;BME280;1615;53.602;11.418;2023-02-23T04:00:31;100799.41;;;8.50;100.00
3206;BME280;1615;53.602;11.418;2023-02-23T04:03:17;100814.41;;;8.52;100.00
3206;BME280;1615;53.602;11.418;2023-02-23T04:06:06;100795.03;;;8.49;100.00
3206;BME280;1615;53.602;11.418;2023-02-23T04:08:52;100774.59;;;8.31;100.00
3206;BME280;1615;53.602;11.418;2023-02-23T04:11:44;100674.84;;;7.65;100.00
3206;BME280;1615;53.602;11.418;2023-02-23T04:15:03;100801.06;;;8.41;100.00
3206;BME280;1615;53.602;11.418;2023-02-23T04:17:31;100774.88;;;8.25;100.00
3206;BME280;1615;53.602;11.418;2023-02-23T04:19:57;100797.81;;;8.39;100.00
3206;BME280;1615;53.602;11.418;2023-02-23T04:22:23;100801.63;;;8.38;100.00
3206;BME280;1615;53.602;11.418;2023-02-23T04:24:49;100808.47;;;8.35;100.00
3206;BME280;1615;53.602;11.418;2023-02-23T04:27:15;100765.63;;;8.06;100.00
3206;BME280;1615;53.602;11.418;2023-02-23T04:29:41;100802.19;;;8.30;100.00
3206;BME280;1615;53.602;11.418;2023-02-23T04:32:12;100808.75;;;8.29;100.00
3206;BME280;1615;53.602;11.418;2023-02-23T04:34:37;100775.97;;;8.14;100.00
3206;BME280;1615;53.602;11.418;2023-02-23T04:37:02;100804.38;;;8.33;100.00
3206;BME280;1615;53.602;11.418;2023-02-23T04:39:28;100810.38;;;8.35;100.00
3206;BME280;1615;53.602;11.418;2023-02-23T04:41:53;100800.53;;;8.34;100.00
3206;BME280;1615;53.602;11.418;2023-02-23T04:44:19;100800.53;;;8.34;100.00
3206;BME280;1615;53.602;11.418;2023-02-23T04:46:44;100805.47;;;8.32;100.00
3206;BME280;1615;53.602;11.418;2023-02-23T04:49:09;100802.44;;;8.33;100.00
3206;BME280;1615;53.602;11.418;2023-02-23T04:51:35;100772.16;;;8.20;100.00
3206;BME280;1615;53.602;11.418;2023-02-23T04:54:02;100806.78;;;8.44;100.00
3206;BME280;1615;53.602;11.418;2023-02-23T04:56:28;100762.88;;;8.16;100.00
3206;BME280;1615;53.602;11.418;2023-02-23T04:58:53;100802.16;;;8.35;100.00
3206;BME280;1615;53.602;11.418;2023-02-23T05:01:19;100803.81;;;8.36;100.00
3206;BME280;1615;53.602;11.418;2023-02-23T05:03:46;100796.97;;;8.33;100.00
3206;BME280;1615;53.602;11.418;2023-02-23T05:06:11;100801.66;;;8.33;100.00
3206;BME280;1615;53.602;11.418;2023-02-23T05:08:37;100804.06;;;8.34;100.00
3206;BME280;1615;53.602;11.418;2023-02-23T05:11:04;100778.72;;;8.24;100.00
3206;BME280;1615;53.602;11.418;2023-02-23T05:13:30;100798.91;;;8.33;100.00
3206;BME280;1615;53.602;11.418;2023-02-23T05:15:56;100741.09;;;8.01;100.00
3206;BME280;1615;53.602;11.418;2023-02-23T05:18:22;100796.19;;;8.33;100.00
3206;BME280;1615;53.602;11.418;2023-02-23T05:20:49;100789.09;;;8.27;100.00
3206;BME280;1615;53.602;11.418;2023-02-23T05:23:14;100773.25;;;8.14;100.00
3206;BME280;1615;53.602;11.418;2023-02-23T05:25:40;100636.47;;;7.27;100.00
3206;BME280;1615;53.602;11.418;2023-02-23T05:28:05;100800.00;;;8.17;100.00
3206;BME280;1615;53.602;11.418;2023-02-23T05:30:30;100800.00;;;8.17;100.00
3206;BME280;1615;53.602;11.418;2023-02-23T05:32:57;100743.84;;;7.86;100.00
3206;BME280;1615;53.602;11.418;2023-02-23T05:35:22;100795.66;;;8.16;100.00
3206;BME280;1615;53.602;11.418;2023-02-23T05:37:48;100792.63;;;8.12;100.00
3206;BME280;1615;53.602;11.418;2023-02-23T05:40:13;100802.75;;;8.12;100.00
3206;BME280;1615;53.602;11.418;2023-02-23T05:42:39;100800.56;;;8.14;100.00
3206;BME280;1615;53.602;11.418;2023-02-23T05:45:05;100797.56;;;8.15;100.00
3206;BME280;1615;53.602;11.418;2023-02-23T05:47:32;100779.84;;;8.03;100.00
3206;BME280;1615;53.602;11.418;2023-02-23T05:49:59;100827.84;;;8.19;100.00
3206;BME280;1615;53.602;11.418;2023-02-23T05:52:26;100800.56;;;8.24;100.00
3206;BME280;1615;53.602;11.418;2023-02-23T05:54:51;100794.00;;;8.25;100.00
3206;BME280;1615;53.602;11.418;2023-02-23T05:57:17;100801.09;;;8.21;100.00
3206;BME280;1615;53.602;11.418;2023-02-23T05:59:42;100800.53;;;8.19;100.00
3206;BME280;1615;53.602;11.418;2023-02-23T06:02:07;100794.84;;;8.20;100.00
3206;BME280;1615;53.602;11.418;2023-02-23T06:04:33;100796.47;;;8.21;100.00
3206;BME280;1615;53.602;11.418;2023-02-23T06:06:58;100802.78;;;8.22;100.00
3206;BME280;1615;53.602;11.418;2023-02-23T06:09:23;100801.09;;;8.26;100.00
3206;BME280;1615;53.602;11.418;2023-02-23T06:11:48;100793.47;;;8.23;100.00
3206;BME280;1615;53.602;11.418;2023-02-23T06:14:14;100797.56;;;8.25;100.00
3206;BME280;1615;53.602;11.418;2023-02-23T06:16:40;100805.75;;;8.15;100.00
3206;BME280;1615;53.602;11.418;2023-02-23T06:19:09;100793.19;;;8.14;100.00
3206;BME280;1615;53.602;11.418;2023-02-23T06:21:34;100796.19;;;8.13;100.00
3206;BME280;1615;53.602;11.418;2023-02-23T06:23:59;100726.13;;;7.68;100.00
3206;BME280;1615;53.602;11.418;2023-02-23T06:26:25;100768.13;;;7.92;100.00
3206;BME280;1615;53.602;11.418;2023-02-23T06:28:51;100787.19;;;8.02;100.00
3206;BME280;1615;53.602;11.418;2023-02-23T06:31:16;100786.94;;;7.99;100.00
3206;BME280;1615;53.602;11.418;2023-02-23T06:33:41;100676.28;;;7.28;100.00
3206;BME280;1615;53.602;11.418;2023-02-23T06:36:07;100774.44;;;7.68;100.00
3206;BME280;1615;53.602;11.418;2023-02-23T06:38:32;100799.78;;;7.98;100.00
3206;BME280;1615;53.602;11.418;2023-02-23T06:40:57;100811.78;;;7.97;100.00
3206;BME280;1615;53.602;11.418;2023-02-23T06:43:23;100822.16;;;7.95;100.00
3206;BME280;1615;53.602;11.418;2023-02-23T06:45:48;100826.25;;;7.93;100.00
3206;BME280;1615;53.602;11.418;2023-02-23T06:48:13;100710.06;;;7.17;100.00
3206;BME280;1615;53.602;11.418;2023-02-23T06:50:39;100822.72;;;7.97;100.00
3206;BME280;1615;53.602;11.418;2023-02-23T06:53:04;100825.72;;;8.01;100.00
3206;BME280;1615;53.602;11.418;2023-02-23T06:55:30;100822.97;;;8.06;100.00
3206;BME280;1615;53.602;11.418;2023-02-23T06:57:56;100814.22;;;8.09;100.00
3206;BME280;1615;53.602;11.418;2023-02-23T07:00:22;100822.41;;;8.14;100.00
3206;BME280;1615;53.602;11.418;2023-02-23T07:02:48;100801.13;;;8.06;100.00
3206;BME280;1615;53.602;11.418;2023-02-23T07:05:13;100822.38;;;8.19;100.00
3206;BME280;1615;53.602;11.418;2023-02-23T07:07:38;100819.16;;;8.22;100.00
3206;BME280;1615;53.602;11.418;2023-02-23T07:10:04;100826.75;;;8.30;100.00
3206;BME280;1615;53.602;11.418;2023-02-23T07:12:30;100832.22;;;8.30;100.00
3206;BME280;1615;53.602;11.418;2023-02-23T07:14:56;100833.84;;;8.31;100.00
3206;BME280;1615;53.602;11.418;2023-02-23T07:17:21;100833.84;;;8.31;100.00
3206;BME280;1615;53.602;11.418;2023-02-23T07:19:46;100831.13;;;8.26;100.00
3206;BME280;1615;53.602;11.418;2023-02-23T07:22:12;100728.06;;;7.58;100.00
3206;BME280;1615;53.602;11.418;2023-02-23T07:24:37;100838.53;;;8.25;100.00
3206;BME280;1615;53.602;11.418;2023-02-23T07:27:03;100817.19;;;8.17;100.00
3206;BME280;1615;53.602;11.418;2023-02-23T07:29:29;100814.22;;;8.29;100.00
3206;BME280;1615;53.602;11.418;2023-02-23T07:31:57;100836.56;;;8.46;100.00
3206;BME280;1615;53.602;11.418;2023-02-23T07:34:22;100850.19;;;8.51;100.00
3206;BME280;1615;53.602;11.418;2023-02-23T07:36:48;100845.81;;;8.55;100.00
3206;BME280;1615;53.602;11.418;2023-02-23T07:39:13;100671.84;;;7.57;100.00
3206;BME280;1615;53.602;11.418;2023-02-23T07:41:38;100804.34;;;8.43;100.00
3206;BME280;1615;53.602;11.418;2023-02-23T07:44:04;100838.63;;;8.74;100.00
3206;BME280;1615;53.602;11.418;2023-02-23T07:46:30;100842.47;;;8.78;100.00
3206;BME280;1615;53.602;11.418;2023-02-23T07:48:55;100855.88;;;8.74;100.00
3206;BME280;1615;53.602;11.418;2023-02-23T07:51:20;100853.66;;;8.76;100.00
3206;BME280;1615;53.602;11.418;2023-02-23T07:53:46;100851.16;;;8.85;100.00
3206;BME280;1615;53.602;11.418;2023-02-23T07:56:12;100717.31;;;7.96;100.00
3206;BME280;1615;53.602;11.418;2023-02-23T07:58:38;100707.53;;;7.90;100.00
3206;BME280;1615;53.602;11.418;2023-02-23T08:01:04;100855.84;;;8.84;100.00
3206;BME280;1615;53.602;11.418;2023-02-23T08:03:30;100867.56;;;8.85;100.00
3206;BME280;1615;53.602;11.418;2023-02-23T08:05:55;100853.31;;;8.98;100.00
3206;BME280;1615;53.602;11.418;2023-02-23T08:08:21;100856.56;;;9.05;100.00
3206;BME280;1615;53.602;11.418;2023-02-23T08:10:47;100817.84;;;8.78;100.00
3206;BME280;1615;53.602;11.418;2023-02-23T08:13:14;100856.50;;;9.15;100.00
3206;BME280;1615;53.602;11.418;2023-02-23T08:15:40;100831.94;;;9.05;100.00
3206;BME280;1615;53.602;11.418;2023-02-23T08:18:05;100840.06;;;9.20;100.00
3206;BME280;1615;53.602;11.418;2023-02-23T08:20:30;100790.22;;;8.84;100.00
3206;BME280;1615;53.602;11.418;2023-02-23T08:22:56;100847.72;;;9.23;100.00
3206;BME280;1615;53.602;11.418;2023-02-23T08:25:22;100853.19;;;9.23;100.00
3206;BME280;1615;53.602;11.418;2023-02-23T08:27:49;100860.81;;;9.26;100.00
3206;BME280;1615;53.602;11.418;2023-02-23T08:30:19;100847.09;;;9.31;100.00
3206;BME280;1615;53.602;11.418;2023-02-23T08:32:45;100844.94;;;9.28;100.00
3206;BME280;1615;53.602;11.418;2023-02-23T08:35:11;100841.63;;;9.31;100.00
3206;BME280;1615;53.602;11.418;2023-02-23T08:37:36;100857.16;;;9.40;100.00
3206;BME280;1615;53.602;11.418;2023-02-23T08:40:02;100728.53;;;8.73;100.00
3206;BME280;1615;53.602;11.418;2023-02-23T08:42:29;100845.34;;;9.50;100.00
3206;BME280;1615;53.602;11.418;2023-02-23T08:44:54;100850.81;;;9.50;100.00
3206;BME280;1615;53.602;11.418;2023-02-23T08:47:22;100854.06;;;9.57;100.00
3206;BME280;1615;53.602;11.418;2023-02-23T08:49:49;100842.56;;;9.60;100.00
3206;BME280;1615;53.602;11.418;2023-02-23T08:52:15;100838.72;;;9.61;100.00
3206;BME280;1615;53.602;11.418;2023-02-23T08:54:40;100845.16;;;9.75;100.00
3206;BME280;1615;53.602;11.418;2023-02-23T08:57:06;100850.47;;;9.95;100.00
3206;BME280;1615;53.602;11.418;2023-02-23T08:59:31;100847.69;;;10.00;100.00
3206;BME280;1615;53.602;11.418;2023-02-23T09:01:56;100797.78;;;9.79;100.00
3206;BME280;1615;53.602;11.418;2023-02-23T09:04:22;100845.47;;;10.02;100.00
3206;BME280;1615;53.602;11.418;2023-02-23T09:06:47;100845.47;;;10.02;100.00
3206;BME280;1615;53.602;11.418;2023-02-23T09:09:14;100844.06;;;10.09;100.00
3206;BME280;1615;53.602;11.418;2023-02-23T09:11:40;100845.91;;;10.19;100.00
3206;BME280;1615;53.602;11.418;2023-02-23T09:14:05;100796.34;;;9.87;100.00
3206;BME280;1615;53.602;11.418;2023-02-23T09:16:32;100863.47;;;10.13;100.00
3206;BME280;1615;53.602;11.418;2023-02-23T09:18:57;100852.50;;;10.13;100.00
3206;BME280;1615;53.602;11.418;2023-02-23T09:21:25;100942.88;;;10.18;100.00
3206;BME280;1615;53.602;11.418;2023-02-23T09:23:56;100843.72;;;10.16;100.00
3206;BME280;1615;53.602;11.418;2023-02-23T09:26:23;100829.56;;;10.09;100.00
3206;BME280;1615;53.602;11.418;2023-02-23T09:28:50;100839.84;;;10.22;100.00
3206;BME280;1615;53.602;11.418;2023-02-23T09:31:18;100860.31;;;10.29;100.00
3206;BME280;1615;53.602;11.418;2023-02-23T09:33:45;100860.03;;;10.31;100.00
3206;BME280;1615;53.602;11.418;2023-02-23T09:36:13;100739.25;;;9.70;100.00
3206;BME280;1615;53.602;11.418;2023-02-23T09:38:47;100856.63;;;10.39;100.00
3206;BME280;1615;53.602;11.418;2023-02-23T09:44:19;100853.91;;;10.39;100.00
3206;BME280;1615;53.602;11.418;2023-02-23T09:49:24;100736.94;;;9.82;100.00
3206;BME280;1615;53.602;11.418;2023-02-23T09:51:55;100847.09;;;10.60;100.00
3206;BME280;1615;53.602;11.418;2023-02-23T09:54:25;100843.63;;;10.78;100.00
3206;BME280;1615;53.602;11.418;2023-02-23T09:56:53;100842.44;;;10.84;100.00
3206;BME280;1615;53.602;11.418;2023-02-23T09:59:23;100839.31;;;10.90;100.00
3206;BME280;1615;53.602;11.418;2023-02-23T10:04:46;100839.81;;;11.16;100.00
3206;BME280;1615;53.602;11.418;2023-02-23T10:07:22;100847.22;;;11.15;100.00
3206;BME280;1615;53.602;11.418;2023-02-23T10:18:20;100851.16;;;11.28;100.00
3206;BME280;1615;53.602;11.418;2023-02-23T10:23:55;100861.59;;;11.49;100.00
3206;BME280;1615;53.602;11.418;2023-02-23T10:26:27;100855.41;;;11.39;100.00
3206;BME280;1615;53.602;11.418;2023-02-23T10:28:57;100872.56;;;11.31;100.00
3206;BME280;1615;53.602;11.418;2023-02-23T10:31:29;100716.69;;;10.54;100.00
3206;BME280;1615;53.602;11.418;2023-02-23T10:33:59;100855.34;;;11.44;100.00
3206;BME280;1615;53.602;11.418;2023-02-23T10:36:34;100858.66;;;11.41;100.00
3206;BME280;1615;53.602;11.418;2023-02-23T10:39:03;100680.06;;;10.26;100.00
3206;BME280;1615;53.602;11.418;2023-02-23T10:41:29;100858.75;;;11.36;100.00
3206;BME280;1615;53.602;11.418;2023-02-23T10:43:55;100862.44;;;11.26;100.00
3206;BME280;1615;53.602;11.418;2023-02-23T10:46:23;100854.13;;;11.13;100.00
3206;BME280;1615;53.602;11.418;2023-02-23T10:48:51;100851.50;;;11.03;100.00
3206;BME280;1615;53.602;11.418;2023-02-23T10:51:24;100857.38;;;10.96;100.00
3206;BME280;1615;53.602;11.418;2023-02-23T10:53:51;100851.06;;;10.96;100.00
3206;BME280;1615;53.602;11.418;2023-02-23T10:56:18;100809.78;;;10.64;100.00
3206;BME280;1615;53.602;11.418;2023-02-23T10:58:54;100799.91;;;10.63;100.00
3206;BME280;1615;53.602;11.418;2023-02-23T11:01:36;100857.16;;;11.11;100.00
3206;BME280;1615;53.602;11.418;2023-02-23T11:04:20;100850.19;;;11.19;100.00
3206;BME280;1615;53.602;11.418;2023-02-23T11:06:47;100805.66;;;10.85;100.00
3206;BME280;1615;53.602;11.418;2023-02-23T11:09:32;100854.72;;;11.10;100.00
3206;BME280;1615;53.602;11.418;2023-02-23T11:14:46;100857.59;;;11.00;100.00
3206;BME280;1615;53.602;11.418;2023-02-23T11:17:33;100834.59;;;10.96;100.00
3206;BME280;1615;53.602;11.418;2023-02-23T11:22:42;100847.91;;;11.07;100.00
3206;BME280;1615;53.602;11.418;2023-02-23T11:25:27;100850.94;;;11.06;100.00
3206;BME280;1615;53.602;11.418;2023-02-23T11:27:54;100847.97;;;11.02;100.00
3206;BME280;1615;53.602;11.418;2023-02-23T11:30:22;100849.44;;;10.95;100.00
3206;BME280;1615;53.602;11.418;2023-02-23T11:32:58;100844.34;;;10.83;100.00
3206;BME280;1615;53.602;11.418;2023-02-23T11:35:34;100836.94;;;10.84;100.00
3206;BME280;1615;53.602;11.418;2023-02-23T11:38:14;100844.00;;;10.90;100.00
3206;BME280;1615;53.602;11.418;2023-02-23T11:40:40;100836.56;;;10.90;100.00
3206;BME280;1615;53.602;11.418;2023-02-23T11:43:14;100801.03;;;10.62;100.00
3206;BME280;1615;53.602;11.418;2023-02-23T11:45:49;100794.94;;;10.65;100.00
3206;BME280;1615;53.602;11.418;2023-02-23T11:48:43;100832.69;;;10.96;100.00
3206;BME280;1615;53.602;11.418;2023-02-23T11:53:55;100819.19;;;11.00;100.00
3206;BME280;1615;53.602;11.418;2023-02-23T11:56:22;100816.06;;;11.06;100.00
3206;BME280;1615;53.602;11.418;2023-02-23T11:58:53;100683.03;;;10.30;100.00
3206;BME280;1615;53.602;11.418;2023-02-23T12:01:25;100817.34;;;11.14;100.00
3206;BME280;1615;53.602;11.418;2023-02-23T12:03:58;100817.09;;;11.10;100.00
3206;BME280;1615;53.602;11.418;2023-02-23T12:06:33;100692.53;;;10.37;100.00
3206;BME280;1615;53.602;11.418;2023-02-23T12:09:28;100809.44;;;11.31;100.00
3206;BME280;1615;53.602;11.418;2023-02-23T12:12:24;100801.13;;;11.36;100.00
3206;BME280;1615;53.602;11.418;2023-02-23T12:15:02;100800.78;;;11.37;100.00
3206;BME280;1615;53.602;11.418;2023-02-23T12:17:39;100800.44;;;11.44;100.00
3206;BME280;1615;53.602;11.418;2023-02-23T12:20:24;100798.50;;;11.44;100.00
3206;BME280;1615;53.602;11.418;2023-02-23T12:22:54;100803.19;;;11.44;100.00
3206;BME280;1615;53.602;11.418;2023-02-23T12:25:35;100794.56;;;11.50;100.00
3206;BME280;1615;53.602;11.418;2023-02-23T12:28:11;100794.75;;;11.59;100.00
3206;BME280;1615;53.602;11.418;2023-02-23T12:30:57;100796.38;;;11.60;100.00
3206;BME280;1615;53.602;11.418;2023-02-23T12:33:34;100789.16;;;11.64;100.00
3206;BME280;1615;53.602;11.418;2023-02-23T12:36:41;100792.94;;;11.68;100.00
3206;BME280;1615;53.602;11.418;2023-02-23T12:39:24;100791.75;;;11.74;100.00
3206;BME280;1615;53.602;11.418;2023-02-23T12:42:53;100782.81;;;11.82;100.00
3206;BME280;1615;53.602;11.418;2023-02-23T12:44:53;100654.59;;;11.00;100.00
3206;BME280;1615;53.602;11.418;2023-02-23T12:47:32;100788.91;;;11.79;100.00
3206;BME280;1615;53.602;11.418;2023-02-23T12:50:27;100788.91;;;11.79;100.00
3206;BME280;1615;53.602;11.418;2023-02-23T12:53:11;100803.75;;;11.78;100.00
3206;BME280;1615;53.602;11.418;2023-02-23T12:56:03;100790.63;;;11.75;100.00
3206;BME280;1615;53.602;11.418;2023-02-23T13:01:15;100850.00;;;11.71;100.00
3206;BME280;1615;53.602;11.418;2023-02-23T13:12:17;100784.44;;;11.83;100.00
3206;BME280;1615;53.602;11.418;2023-02-23T13:15:19;100783.22;;;11.89;100.00
3206;BME280;1615;53.602;11.418;2023-02-23T13:18:05;100617.41;;;10.94;100.00
3206;BME280;1615;53.602;11.418;2023-02-23T13:23:30;100773.72;;;12.00;100.00
3206;BME280;1615;53.602;11.418;2023-02-23T13:26:38;100778.25;;;11.91;100.00
3206;BME280;1615;53.602;11.418;2023-02-23T13:31:36;100777.72;;;11.89;100.00
3206;BME280;1615;53.602;11.418;2023-02-23T13:34:05;100785.25;;;11.83;100.00
3206;BME280;1615;53.602;11.418;2023-02-23T13:36:32;100776.91;;;11.75;100.00
3206;BME280;1615;53.602;11.418;2023-02-23T13:42:25;100771.66;;;11.60;100.00
3206;BME280;1615;53.602;11.418;2023-02-23T13:55:59;100767.00;;;11.42;100.00
3206;BME280;1615;53.602;11.418;2023-02-23T13:58:28;100767.00;;;11.42;100.00
3206;BME280;1615;53.602;11.418;2023-02-23T14:01:09;100769.81;;;11.37;100.00
3206;BME280;1615;53.602;11.418;2023-02-23T14:03:43;100770.69;;;11.32;100.00
3206;BME280;1615;53.602;11.418;2023-02-23T14:06:13;100778.13;;;11.32;100.00
3206;BME280;1615;53.602;11.418;2023-02-23T14:08:42;100772.34;;;11.33;100.00
3206;BME280;1615;53.602;11.418;2023-02-23T14:11:09;100772.91;;;11.30;100.00
3206;BME280;1615;53.602;11.418;2023-02-23T14:13:40;100778.63;;;11.34;100.00
3206;BME280;1615;53.602;11.418;2023-02-23T14:16:18;100775.00;;;11.20;100.00
3206;BME280;1615;53.602;11.418;2023-02-23T14:23:51;100776.44;;;11.17;100.00
3206;BME280;1615;53.602;11.418;2023-02-23T14:31:52;100768.63;;;11.06;100.00
3206;BME280;1615;53.602;11.418;2023-02-23T14:34:20;100774.03;;;11.11;100.00
3206;BME280;1615;53.602;11.418;2023-02-23T14:36:47;100720.72;;;10.80;100.00
3206;BME280;1615;53.602;11.418;2023-02-23T14:39:22;100781.16;;;11.12;100.00
3206;BME280;1615;53.602;11.418;2023-02-23T14:41:55;100777.22;;;11.18;100.00
3206;BME280;1615;53.602;11.418;2023-02-23T14:44:26;100804.06;;;11.21;100.00
3206;BME280;1615;53.602;11.418;2023-02-23T14:49:25;100783.16;;;11.25;100.00
3206;BME280;1615;53.602;11.418;2023-02-23T14:51:59;100725.31;;;10.84;100.00
3206;BME280;1615;53.602;11.418;2023-02-23T14:56:58;100766.38;;;11.08;100.00
3206;BME280;1615;53.602;11.418;2023-02-23T14:59:26;100790.44;;;11.16;100.00